createdAt,value
2024-04-01T00:00:46.446Z,961.66
2024-04-01T00:01:46.464Z,961.68
2024-04-01T00:02:46.440Z,961.64
2024-04-01T00:03:46.434Z,961.63
2024-04-01T00:04:46.415Z,961.65
2024-04-01T00:05:46.425Z,961.59
2024-04-01T00:06:46.391Z,961.57
2024-04-01T00:07:46.401Z,961.56
2024-04-01T00:08:46.398Z,961.52
2024-04-01T00:09:46.339Z,961.50
2024-04-01T00:10:46.329Z,961.48
2024-04-01T00:11:53.392Z,961.48
2024-04-01T00:12:46.302Z,961.44
2024-04-01T00:13:46.299Z,961.44
2024-04-01T00:14:46.278Z,961.45
2024-04-01T00:15:46.273Z,961.45
2024-04-01T00:16:46.331Z,961.48
2024-04-01T00:17:46.262Z,961.48
2024-04-01T00:18:46.277Z,961.49
2024-04-01T00:19:46.251Z,961.48
2024-04-01T00:20:46.253Z,961.49
2024-04-01T00:21:46.298Z,961.54
2024-04-01T00:22:46.205Z,961.57
2024-04-01T00:23:46.289Z,961.54
2024-04-01T00:24:46.184Z,961.49
2024-04-01T00:25:46.172Z,961.50
2024-04-01T00:26:46.265Z,961.50
2024-04-01T00:27:46.153Z,961.47
2024-04-01T00:28:46.204Z,961.43
2024-04-01T00:29:46.140Z,961.38
2024-04-01T00:30:46.124Z,961.38
2024-04-01T00:31:46.112Z,961.33
2024-04-01T00:32:46.150Z,961.31
2024-04-01T00:33:46.086Z,961.31
2024-04-01T00:34:46.060Z,961.33
2024-04-01T00:35:46.057Z,961.30
2024-04-01T00:36:46.049Z,961.34
2024-04-01T00:37:46.035Z,961.28
2024-04-01T00:38:46.049Z,961.25
2024-04-01T00:39:46.008Z,961.25
2024-04-01T00:40:46.007Z,961.23
2024-04-01T00:41:46.277Z,961.12
2024-04-01T00:42:45.992Z,961.12
2024-04-01T00:43:45.999Z,961.11
2024-04-01T00:44:45.980Z,961.09
2024-04-01T00:45:45.972Z,961.07
2024-04-01T00:46:45.949Z,961.09
2024-04-01T00:47:45.961Z,961.07
2024-04-01T00:48:45.930Z,961.00
2024-04-01T00:49:45.911Z,960.93
2024-04-01T00:50:45.928Z,960.91
2024-04-01T00:51:45.902Z,960.91
2024-04-01T00:52:45.899Z,960.90
2024-04-01T00:53:45.879Z,960.94
2024-04-01T00:54:45.859Z,960.94
2024-04-01T00:55:45.850Z,960.96
2024-04-01T00:56:45.850Z,960.86
2024-04-01T00:57:45.850Z,960.85
2024-04-01T00:58:45.801Z,960.70
2024-04-01T00:59:45.823Z,960.60
2024-04-01T01:00:45.799Z,960.45
2024-04-01T01:01:45.783Z,960.38
2024-04-01T01:02:45.767Z,960.45
2024-04-01T01:03:45.764Z,960.32
2024-04-01T01:04:45.737Z,960.32
2024-04-01T01:05:45.739Z,960.26
2024-04-01T01:06:45.727Z,960.26
2024-04-01T01:07:45.718Z,960.31
2024-04-01T01:08:45.728Z,960.31
2024-04-01T01:09:45.707Z,960.31
2024-04-01T01:10:45.715Z,960.26
2024-04-01T01:11:45.709Z,960.35
2024-04-01T01:12:45.660Z,960.36
2024-04-01T01:13:45.668Z,960.44
2024-04-01T01:14:45.657Z,960.32
2024-04-01T01:15:45.619Z,960.28
2024-04-01T01:16:45.635Z,960.21
2024-04-01T01:17:45.601Z,960.12
2024-04-01T01:18:45.602Z,959.97
2024-04-01T01:19:45.590Z,959.88
2024-04-01T01:20:45.579Z,959.82
2024-04-01T01:21:45.560Z,959.78
2024-04-01T01:22:45.549Z,959.77
2024-04-01T01:23:45.538Z,959.65
2024-04-01T01:24:45.543Z,959.61
2024-04-01T01:25:45.518Z,959.55
2024-04-01T01:26:45.521Z,959.59
2024-04-01T01:27:45.504Z,959.64
2024-04-01T01:28:45.490Z,959.72
2024-04-01T01:29:45.469Z,959.83
2024-04-01T01:30:45.479Z,959.85
2024-04-01T01:31:45.474Z,959.96
2024-04-01T01:32:45.446Z,959.93
2024-04-01T01:33:45.429Z,959.96
2024-04-01T01:34:45.427Z,959.95
2024-04-01T01:35:45.423Z,959.91
2024-04-01T01:36:45.407Z,959.85
2024-04-01T01:37:45.388Z,959.78
2024-04-01T01:38:45.379Z,959.75
2024-04-01T01:39:45.361Z,959.63
2024-04-01T01:40:45.370Z,959.70
2024-04-01T01:41:45.355Z,959.69
2024-04-01T01:42:45.337Z,959.73
2024-04-01T01:43:45.343Z,959.79
2024-04-01T01:44:45.329Z,959.80
2024-04-01T01:45:45.307Z,959.79
2024-04-01T01:46:45.302Z,959.74
2024-04-01T01:47:45.291Z,959.73
2024-04-01T01:48:45.288Z,959.82
2024-04-01T01:49:45.263Z,959.88
2024-04-01T01:50:45.265Z,959.85
2024-04-01T01:51:45.266Z,959.88
2024-04-01T01:52:45.224Z,959.93
2024-04-01T01:53:45.230Z,959.96
2024-04-01T01:54:45.204Z,959.94
2024-04-01T01:55:45.194Z,959.89
2024-04-01T01:56:45.204Z,959.82
2024-04-01T01:57:45.177Z,959.76
2024-04-01T01:58:45.167Z,959.66
2024-04-01T01:59:45.151Z,959.53
2024-04-01T02:00:45.142Z,959.55
2024-04-01T02:01:45.135Z,959.56
2024-04-01T02:02:45.125Z,959.56
2024-04-01T02:03:45.110Z,959.57
2024-04-01T02:04:45.095Z,959.61
2024-04-01T02:05:45.093Z,959.52
2024-04-01T02:06:45.073Z,959.61
2024-04-01T02:07:45.076Z,959.54
2024-04-01T02:08:45.061Z,959.66
2024-04-01T02:09:45.034Z,959.73
2024-04-01T02:10:45.025Z,959.80
2024-04-01T02:11:45.019Z,959.85
2024-04-01T02:12:45.054Z,959.89
2024-04-01T02:13:44.990Z,959.88
2024-04-01T02:14:44.988Z,959.96
2024-04-01T02:15:44.963Z,959.91
2024-04-01T02:16:44.959Z,959.83
2024-04-01T02:17:44.964Z,959.79
2024-04-01T02:18:44.957Z,959.68
2024-04-01T02:19:44.934Z,959.52
2024-04-01T02:20:44.923Z,959.42
2024-04-01T02:21:44.920Z,959.38
2024-04-01T02:22:44.890Z,959.24
2024-04-01T02:23:44.889Z,959.06
2024-04-01T02:24:44.903Z,958.98
2024-04-01T02:25:44.870Z,959.02
2024-04-01T02:26:44.847Z,959.11
2024-04-01T02:27:44.844Z,959.06
2024-04-01T02:28:44.839Z,958.96
2024-04-01T02:29:44.838Z,958.90
2024-04-01T02:30:44.801Z,959.00
2024-04-01T02:31:45.155Z,958.96
2024-04-01T02:32:44.790Z,958.97
2024-04-01T02:33:44.795Z,958.91
2024-04-01T02:34:44.780Z,958.90
2024-04-01T02:35:44.752Z,958.96
2024-04-01T02:36:44.737Z,959.12
2024-04-01T02:37:44.733Z,959.33
2024-04-01T02:38:44.727Z,959.47
2024-04-01T02:39:44.731Z,959.51
2024-04-01T02:40:44.714Z,959.53
2024-04-01T02:41:44.691Z,959.54
2024-04-01T02:42:44.694Z,959.59
2024-04-01T02:43:44.683Z,959.60
2024-04-01T02:44:44.649Z,959.59
2024-04-01T02:45:44.682Z,959.49
2024-04-01T02:46:44.628Z,959.39
2024-04-01T02:47:44.622Z,959.37
2024-04-01T02:48:44.627Z,959.32
2024-04-01T02:49:44.604Z,959.32
2024-04-01T02:50:44.608Z,959.22
2024-04-01T02:51:44.574Z,959.18
2024-04-01T02:52:44.567Z,959.14
2024-04-01T02:53:44.576Z,959.11
2024-04-01T02:54:44.564Z,959.11
2024-04-01T02:55:44.533Z,959.15
2024-04-01T02:56:44.536Z,959.01
2024-04-01T02:57:44.514Z,958.96
2024-04-01T02:58:44.511Z,958.87
2024-04-01T02:59:44.517Z,959.02
2024-04-01T03:00:44.488Z,958.99
2024-04-01T03:01:44.481Z,959.00
2024-04-01T03:02:44.455Z,958.99
2024-04-01T03:03:44.449Z,959.10
2024-04-01T03:04:44.461Z,959.05
2024-04-01T03:05:44.456Z,959.10
2024-04-01T03:06:44.434Z,959.14
2024-04-01T03:07:44.406Z,959.16
2024-04-01T03:08:44.391Z,959.17
2024-04-01T03:09:44.379Z,959.13
2024-04-01T03:10:44.386Z,959.08
2024-04-01T03:11:44.358Z,959.04
2024-04-01T03:12:44.348Z,958.95
2024-04-01T03:13:44.346Z,958.95
2024-04-01T03:14:44.323Z,959.05
2024-04-01T03:15:44.340Z,959.10
2024-04-01T03:16:44.320Z,959.11
2024-04-01T03:17:44.298Z,959.02
2024-04-01T03:18:44.291Z,958.96
2024-04-01T03:19:44.277Z,958.93
2024-04-01T03:20:44.273Z,958.88
2024-04-01T03:21:44.275Z,958.88
2024-04-01T03:22:44.243Z,958.88
2024-04-01T03:23:44.232Z,958.88
2024-04-01T03:24:44.251Z,958.87
2024-04-01T03:25:44.217Z,958.91
2024-04-01T03:26:44.212Z,958.90
2024-04-01T03:27:44.205Z,958.88
2024-04-01T03:28:44.185Z,958.90
2024-04-01T03:29:44.166Z,958.96
2024-04-01T03:30:44.152Z,958.96
2024-04-01T03:31:44.161Z,958.99
2024-04-01T03:32:44.129Z,959.00
2024-04-01T03:33:44.121Z,958.96
2024-04-01T03:34:44.117Z,959.00
2024-04-01T03:35:44.106Z,959.08
2024-04-01T03:36:44.110Z,959.10
2024-04-01T03:37:44.087Z,959.22
2024-04-01T03:38:44.061Z,959.25
2024-04-01T03:39:44.054Z,959.21
2024-04-01T03:40:44.046Z,959.23
2024-04-01T03:41:44.058Z,959.21
2024-04-01T03:42:44.040Z,959.26
2024-04-01T03:43:44.019Z,959.30
2024-04-01T03:44:44.026Z,959.41
2024-04-01T03:45:43.997Z,959.29
2024-04-01T03:46:43.983Z,959.35
2024-04-01T03:47:43.985Z,959.29
2024-04-01T03:48:43.965Z,959.29
2024-04-01T03:49:43.952Z,959.29
2024-04-01T03:50:43.950Z,959.22
2024-04-01T03:51:43.954Z,959.23
2024-04-01T03:52:43.919Z,959.26
2024-04-01T03:53:43.922Z,959.21
2024-04-01T03:54:43.901Z,959.24
2024-04-01T03:55:43.886Z,959.32
2024-04-01T03:56:43.894Z,959.21
2024-04-01T03:57:43.866Z,959.26
2024-04-01T03:58:43.875Z,959.28
2024-04-01T03:59:43.843Z,959.31
2024-04-01T04:00:43.845Z,959.20
2024-04-01T04:01:43.825Z,959.24
2024-04-01T04:02:43.817Z,959.29
2024-04-01T04:03:43.831Z,959.30
2024-04-01T04:04:43.789Z,959.22
2024-04-01T04:05:43.778Z,959.09
2024-04-01T04:06:43.761Z,959.04
2024-04-01T04:07:43.773Z,958.98
2024-04-01T04:08:43.760Z,959.00
2024-04-01T04:09:43.741Z,958.99
2024-04-01T04:10:43.734Z,959.00
2024-04-01T04:11:43.728Z,959.24
2024-04-01T04:12:43.717Z,959.34
2024-04-01T04:13:43.697Z,959.37
2024-04-01T04:14:43.696Z,959.37
2024-04-01T04:15:43.692Z,959.32
2024-04-01T04:16:43.657Z,959.23
2024-04-01T04:17:43.645Z,959.02
2024-04-01T04:18:43.635Z,958.89
2024-04-01T04:19:43.639Z,958.78
2024-04-01T04:20:43.633Z,958.86
2024-04-01T04:21:43.612Z,958.88
2024-04-01T04:22:43.586Z,958.96
2024-04-01T04:23:43.583Z,958.96
2024-04-01T04:24:43.588Z,958.98
2024-04-01T04:25:43.584Z,959.01
2024-04-01T04:26:43.543Z,958.97
2024-04-01T04:27:43.787Z,959.04
2024-04-01T04:28:43.545Z,959.13
2024-04-01T04:29:43.524Z,959.15
2024-04-01T04:30:43.504Z,958.99
2024-04-01T04:31:43.485Z,959.06
2024-04-01T04:32:43.488Z,958.98
2024-04-01T04:33:43.478Z,958.89
2024-04-01T04:34:43.509Z,958.90
2024-04-01T04:35:43.457Z,959.00
2024-04-01T04:36:43.455Z,958.87
2024-04-01T04:37:43.451Z,959.04
2024-04-01T04:38:43.433Z,958.95
2024-04-01T04:39:43.419Z,958.94
2024-04-01T04:40:43.397Z,958.87
2024-04-01T04:41:43.408Z,958.78
2024-04-01T04:42:43.375Z,958.84
2024-04-01T04:43:43.575Z,958.91
2024-04-01T04:44:43.350Z,958.90
2024-04-01T04:45:43.348Z,959.06
2024-04-01T04:46:43.345Z,959.10
2024-04-01T04:47:43.326Z,959.05
2024-04-01T04:48:43.310Z,959.05
2024-04-01T04:49:43.301Z,959.10
2024-04-01T04:50:43.317Z,959.09
2024-04-01T04:51:43.284Z,959.17
2024-04-01T04:52:43.265Z,959.20
2024-04-01T04:53:43.263Z,959.30
2024-04-01T04:54:43.266Z,959.31
2024-04-01T04:55:43.238Z,959.34
2024-04-01T04:56:43.248Z,959.31
2024-04-01T04:57:43.221Z,959.25
2024-04-01T04:58:43.196Z,959.16
2024-04-01T04:59:43.191Z,959.21
2024-04-01T05:00:43.185Z,959.27
2024-04-01T05:01:43.182Z,959.32
2024-04-01T05:02:43.196Z,959.32
2024-04-01T05:03:43.160Z,959.36
2024-04-01T05:04:43.171Z,959.38
2024-04-01T05:05:43.144Z,959.41
2024-04-01T05:06:43.124Z,959.45
2024-04-01T05:07:43.107Z,959.45
2024-04-01T05:08:43.089Z,959.55
2024-04-01T05:09:43.114Z,959.60
2024-04-01T05:10:43.075Z,959.58
2024-04-01T05:11:43.076Z,959.70
2024-04-01T05:12:43.062Z,959.69
2024-04-01T05:13:43.042Z,959.76
2024-04-01T05:14:43.025Z,959.78
2024-04-01T05:15:43.035Z,959.74
2024-04-01T05:16:43.026Z,959.73
2024-04-01T05:17:43.000Z,959.78
2024-04-01T05:18:42.999Z,959.84
2024-04-01T05:19:42.975Z,959.94
2024-04-01T05:20:42.960Z,960.10
2024-04-01T05:21:42.972Z,960.05
2024-04-01T05:22:42.951Z,960.17
2024-04-01T05:23:42.942Z,960.25
2024-04-01T05:24:42.915Z,960.25
2024-04-01T05:25:42.934Z,960.33
2024-04-01T05:26:42.896Z,960.30
2024-04-01T05:27:42.907Z,960.37
2024-04-01T05:28:42.886Z,960.37
2024-04-01T05:29:42.868Z,960.42
2024-04-01T05:30:42.853Z,960.38
2024-04-01T05:31:42.855Z,960.49
2024-04-01T05:32:42.871Z,960.49
2024-04-01T05:33:42.823Z,960.52
2024-04-01T05:34:42.824Z,960.49
2024-04-01T05:35:42.819Z,960.64
2024-04-01T05:36:42.795Z,960.57
2024-04-01T05:37:42.782Z,960.60
2024-04-01T05:38:42.765Z,960.66
2024-04-01T05:39:42.768Z,960.61
2024-04-01T05:40:42.765Z,960.54
2024-04-01T05:41:42.751Z,960.54
2024-04-01T05:42:42.724Z,960.42
2024-04-01T05:43:42.719Z,960.53
2024-04-01T05:44:42.706Z,960.48
2024-04-01T05:45:42.703Z,960.49
2024-04-01T05:46:42.682Z,960.52
2024-04-01T05:47:42.697Z,960.55
2024-04-01T05:48:42.663Z,960.61
2024-04-01T05:49:42.670Z,960.60
2024-04-01T05:50:42.650Z,960.71
2024-04-01T05:51:42.634Z,960.68
2024-04-01T05:52:42.619Z,960.54
2024-04-01T05:53:42.619Z,960.64
2024-04-01T05:54:42.607Z,960.69
2024-04-01T05:55:42.596Z,960.63
2024-04-01T05:56:42.575Z,960.60
2024-04-01T05:57:42.570Z,960.65
2024-04-01T05:58:42.549Z,960.84
2024-04-01T05:59:42.550Z,960.89
2024-04-01T06:00:42.551Z,960.90
2024-04-01T06:01:42.577Z,960.95
2024-04-01T06:02:42.520Z,960.91
2024-04-01T06:03:42.499Z,960.94
2024-04-01T06:04:42.487Z,960.94
2024-04-01T06:05:42.833Z,960.97
2024-04-01T06:06:42.464Z,961.09
2024-04-01T06:07:42.459Z,961.10
2024-04-01T06:08:42.455Z,961.08
2024-04-01T06:09:42.436Z,961.07
2024-04-01T06:10:42.476Z,961.03
2024-04-01T06:11:43.151Z,961.08
2024-04-01T06:12:42.411Z,961.03
2024-04-01T06:13:42.401Z,961.07
2024-04-01T06:14:42.486Z,961.04
2024-04-01T06:15:42.386Z,961.06
2024-04-01T06:16:42.398Z,961.08
2024-04-01T06:17:42.391Z,961.11
2024-04-01T06:18:42.343Z,961.10
2024-04-01T06:19:42.328Z,961.15
2024-04-01T06:20:42.329Z,961.14
2024-04-01T06:21:42.332Z,961.12
2024-04-01T06:22:42.298Z,961.22
2024-04-01T06:23:42.289Z,961.27
2024-04-01T06:24:42.277Z,961.29
2024-04-01T06:25:42.290Z,961.45
2024-04-01T06:26:42.247Z,961.27
2024-04-01T06:27:42.246Z,961.26
2024-04-01T06:28:42.994Z,961.30
2024-04-01T06:29:42.235Z,961.35
2024-04-01T06:30:43.330Z,961.40
2024-04-01T06:31:42.194Z,961.42
2024-04-01T06:32:43.191Z,961.43
2024-04-01T06:33:42.189Z,961.44
2024-04-01T06:34:43.181Z,961.46
2024-04-01T06:35:42.154Z,961.56
2024-04-01T06:36:42.894Z,961.57
2024-04-01T06:37:42.149Z,961.61
2024-04-01T06:38:43.164Z,961.66
2024-04-01T06:39:42.135Z,961.65
2024-04-01T06:40:42.162Z,961.62
2024-04-01T06:41:42.107Z,961.65
2024-04-01T06:42:42.848Z,961.73
2024-04-01T06:43:42.073Z,961.93
2024-04-01T06:44:42.103Z,962.08
2024-04-01T06:45:42.050Z,962.11
2024-04-01T06:46:42.057Z,962.10
2024-04-01T06:47:42.031Z,962.07
2024-04-01T06:48:42.035Z,962.11
2024-04-01T06:49:42.009Z,962.14
2024-04-01T06:50:41.994Z,962.04
2024-04-01T06:51:41.981Z,962.00
2024-04-01T06:52:41.991Z,961.95
2024-04-01T06:53:41.975Z,961.92
2024-04-01T06:54:41.951Z,961.95
2024-04-01T06:55:41.947Z,961.79
2024-04-01T06:56:41.945Z,961.80
2024-04-01T06:57:42.969Z,961.89
2024-04-01T06:58:41.910Z,961.91
2024-04-01T06:59:41.990Z,961.92
2024-04-01T07:00:42.012Z,961.80
2024-04-01T07:01:41.906Z,961.69
2024-04-01T07:02:41.889Z,961.69
2024-04-01T07:03:41.871Z,961.77
2024-04-01T07:04:41.841Z,961.82
2024-04-01T07:05:41.826Z,961.98
2024-04-01T07:06:42.009Z,962.05
2024-04-01T07:07:41.911Z,962.08
2024-04-01T07:08:41.799Z,962.10
2024-04-01T07:09:41.788Z,962.08
2024-04-01T07:10:41.788Z,962.12
2024-04-01T07:11:41.784Z,962.20
2024-04-01T07:12:41.783Z,962.26
2024-04-01T07:13:41.758Z,962.28
2024-04-01T07:14:41.745Z,962.40
2024-04-01T07:15:41.717Z,962.39
2024-04-01T07:16:41.725Z,962.47
2024-04-01T07:17:41.702Z,962.53
2024-04-01T07:18:41.693Z,962.66
2024-04-01T07:19:41.680Z,962.59
2024-04-01T07:20:41.681Z,962.56
2024-04-01T07:21:41.658Z,962.52
2024-04-01T07:22:41.639Z,962.46
2024-04-01T07:23:41.665Z,962.49
2024-04-01T07:24:41.627Z,962.60
2024-04-01T07:25:41.634Z,962.63
2024-04-01T07:26:41.634Z,962.66
2024-04-01T07:27:42.105Z,962.70
2024-04-01T07:28:41.586Z,962.69
2024-04-01T07:29:41.567Z,962.74
2024-04-01T07:30:41.563Z,962.64
2024-04-01T07:31:41.548Z,962.62
2024-04-01T07:32:41.652Z,962.58
2024-04-01T07:33:41.530Z,962.63
2024-04-01T07:34:41.527Z,962.88
2024-04-01T07:35:41.632Z,962.71
2024-04-01T07:36:41.513Z,962.68
2024-04-01T07:37:41.483Z,962.69
2024-04-01T07:38:41.471Z,962.74
2024-04-01T07:39:41.459Z,962.82
2024-04-01T07:40:42.102Z,962.69
2024-04-01T07:41:41.612Z,962.79
2024-04-01T07:42:41.442Z,962.75
2024-04-01T07:43:41.428Z,962.81
2024-04-01T07:44:41.410Z,962.72
2024-04-01T07:45:41.441Z,962.80
2024-04-01T07:46:41.406Z,962.81
2024-04-01T07:47:41.408Z,962.91
2024-04-01T07:48:41.368Z,962.89
2024-04-01T07:49:41.352Z,962.98
2024-04-01T07:50:41.356Z,962.91
2024-04-01T07:51:41.323Z,963.03
2024-04-01T07:52:41.361Z,963.05
2024-04-01T07:53:41.304Z,963.10
2024-04-01T07:54:41.318Z,963.12
2024-04-01T07:55:41.285Z,963.30
2024-04-01T07:56:41.283Z,963.26
2024-04-01T07:57:41.289Z,963.29
2024-04-01T07:58:41.286Z,963.30
2024-04-01T07:59:41.316Z,963.35
2024-04-01T08:00:41.244Z,963.41
2024-04-01T08:01:41.230Z,963.52
2024-04-01T08:02:41.287Z,963.51
2024-04-01T08:03:41.217Z,963.60
2024-04-01T08:04:41.210Z,963.56
2024-04-01T08:05:41.175Z,963.58
2024-04-01T08:06:41.171Z,963.57
2024-04-01T08:07:41.204Z,963.55
2024-04-01T08:08:41.154Z,963.54
2024-04-01T08:09:41.156Z,963.63
2024-04-01T08:10:41.209Z,963.72
2024-04-01T08:11:41.111Z,963.74
2024-04-01T08:12:41.108Z,963.76
2024-04-01T08:13:41.108Z,963.82
2024-04-01T08:14:41.092Z,963.86
2024-04-01T08:15:41.065Z,963.91
2024-04-01T08:16:41.073Z,963.98
2024-04-01T08:17:41.097Z,963.91
2024-04-01T08:18:41.036Z,963.99
2024-04-01T08:19:41.045Z,964.06
2024-04-01T08:20:41.035Z,964.04
2024-04-01T08:21:41.022Z,964.10
2024-04-01T08:22:41.045Z,964.15
2024-04-01T08:23:40.983Z,964.17
2024-04-01T08:24:40.992Z,964.20
2024-04-01T08:25:40.977Z,964.21
2024-04-01T08:26:40.965Z,964.23
2024-04-01T08:27:41.872Z,964.25
2024-04-01T08:28:40.932Z,964.34
2024-04-01T08:29:40.923Z,964.44
2024-04-01T08:30:40.931Z,964.45
2024-04-01T08:31:40.907Z,964.49
2024-04-01T08:32:40.892Z,964.47
2024-04-01T08:33:40.875Z,964.50
2024-04-01T08:34:40.872Z,964.39
2024-04-01T08:35:40.873Z,964.38
2024-04-01T08:36:40.865Z,964.41
2024-04-01T08:37:40.891Z,964.37
2024-04-01T08:38:40.835Z,964.40
2024-04-01T08:39:40.821Z,964.40
2024-04-01T08:40:40.804Z,964.45
2024-04-01T08:41:40.808Z,964.49
2024-04-01T08:42:40.784Z,964.58
2024-04-01T08:43:40.778Z,964.59
2024-04-01T08:44:40.784Z,964.74
2024-04-01T08:45:40.744Z,964.78
2024-04-01T08:46:40.758Z,964.75
2024-04-01T08:47:40.732Z,964.79
2024-04-01T08:48:40.722Z,964.82
2024-04-01T08:49:40.731Z,964.89
2024-04-01T08:50:40.694Z,964.89
2024-04-01T08:51:40.742Z,964.85
2024-04-01T08:52:40.744Z,964.88
2024-04-01T08:53:40.667Z,964.87
2024-04-01T08:54:40.659Z,964.89
2024-04-01T08:55:40.663Z,964.91
2024-04-01T08:56:43.899Z,964.83
2024-04-01T08:57:40.689Z,964.87
2024-04-01T08:58:40.644Z,964.76
2024-04-01T08:59:40.603Z,964.70
2024-04-01T09:00:40.595Z,964.82
2024-04-01T09:01:40.622Z,964.74
2024-04-01T09:02:40.601Z,964.80
2024-04-01T09:03:40.578Z,964.73
2024-04-01T09:04:40.558Z,964.76
2024-04-01T09:05:40.542Z,964.71
2024-04-01T09:06:40.532Z,964.76
2024-04-01T09:07:40.531Z,964.70
2024-04-01T09:08:40.497Z,964.70
2024-04-01T09:09:40.486Z,964.66
2024-04-01T09:10:40.570Z,964.75
2024-04-01T09:11:40.466Z,964.68
2024-04-01T09:12:40.478Z,964.73
2024-04-01T09:13:40.484Z,964.70
2024-04-01T09:14:40.434Z,964.68
2024-04-01T09:15:40.434Z,964.79
2024-04-01T09:16:40.450Z,964.75
2024-04-01T09:17:40.405Z,964.82
2024-04-01T09:18:40.628Z,964.88
2024-04-01T09:19:40.416Z,964.93
2024-04-01T09:20:40.964Z,964.90
2024-04-01T09:21:40.363Z,964.94
2024-04-01T09:22:41.096Z,964.95
2024-04-01T09:23:40.358Z,964.97
2024-04-01T09:24:41.079Z,964.95
2024-04-01T09:25:40.342Z,965.03
2024-04-01T09:26:40.311Z,965.03
2024-04-01T09:27:40.297Z,965.07
2024-04-01T09:28:40.305Z,965.18
2024-04-01T09:29:40.271Z,964.96
2024-04-01T09:30:40.288Z,965.18
2024-04-01T09:31:40.252Z,965.24
2024-04-01T09:32:40.245Z,965.27
2024-04-01T09:33:40.246Z,965.36
2024-04-01T09:34:40.321Z,965.44
2024-04-01T09:35:40.224Z,965.42
2024-04-01T09:36:40.196Z,965.36
2024-04-01T09:37:40.197Z,965.45
2024-04-01T09:38:40.830Z,965.40
2024-04-01T09:39:40.390Z,965.43
2024-04-01T09:40:40.728Z,965.39
2024-04-01T09:41:40.143Z,965.31
2024-04-01T09:42:40.320Z,965.33
2024-04-01T09:43:50.562Z,965.36
2024-04-01T09:44:41.508Z,965.39
2024-04-01T09:45:40.319Z,965.42
2024-04-01T09:46:40.115Z,965.39
2024-04-01T09:47:40.100Z,965.45
2024-04-01T09:48:40.086Z,965.46
2024-04-01T09:49:40.094Z,965.42
2024-04-01T09:50:40.051Z,965.55
2024-04-01T09:51:40.053Z,965.54
2024-04-01T09:52:40.060Z,965.67
2024-04-01T09:53:40.032Z,965.63
2024-04-01T09:54:40.002Z,965.63
2024-04-01T09:55:40.026Z,965.55
2024-04-01T09:56:39.998Z,965.64
2024-04-01T09:57:39.969Z,965.61
2024-04-01T09:58:40.004Z,965.59
2024-04-01T09:59:39.970Z,965.70
2024-04-01T10:00:39.952Z,965.63
2024-04-01T10:01:39.957Z,965.70
2024-04-01T10:02:39.913Z,965.65
2024-04-01T10:03:39.903Z,965.70
2024-04-01T10:04:39.903Z,965.74
2024-04-01T10:05:39.879Z,965.78
2024-04-01T10:06:39.891Z,965.84
2024-04-01T10:07:39.900Z,965.85
2024-04-01T10:08:39.858Z,965.86
2024-04-01T10:09:39.857Z,965.93
2024-04-01T10:10:39.830Z,966.08
2024-04-01T10:11:39.836Z,965.99
2024-04-01T10:12:39.827Z,965.82
2024-04-01T10:13:39.808Z,965.88
2024-04-01T10:14:39.874Z,965.84
2024-04-01T10:15:39.769Z,965.90
2024-04-01T10:16:39.775Z,965.79
2024-04-01T10:17:39.751Z,965.75
2024-04-01T10:18:39.753Z,965.85
2024-04-01T10:19:39.753Z,965.93
2024-04-01T10:20:39.722Z,965.83
2024-04-01T10:21:40.458Z,965.87
2024-04-01T10:22:39.733Z,965.91
2024-04-01T10:23:39.700Z,965.97
2024-04-01T10:24:39.704Z,965.89
2024-04-01T10:25:40.754Z,965.90
2024-04-01T10:26:39.669Z,965.94
2024-04-01T10:27:40.399Z,965.95
2024-04-01T10:28:39.688Z,966.07
2024-04-01T10:29:39.826Z,966.25
2024-04-01T10:30:39.657Z,966.02
2024-04-01T10:31:40.377Z,966.16
2024-04-01T10:32:39.619Z,966.29
2024-04-01T10:33:40.331Z,966.24
2024-04-01T10:34:40.801Z,966.23
2024-04-01T10:35:40.364Z,966.43
2024-04-01T10:36:39.561Z,966.36
2024-04-01T10:37:40.009Z,966.82
2024-04-01T10:38:39.542Z,966.41
2024-04-01T10:39:39.606Z,966.54
2024-04-01T10:40:39.530Z,966.42
2024-04-01T10:41:41.547Z,966.33
2024-04-01T10:42:39.487Z,966.33
2024-04-01T10:43:39.513Z,966.38
2024-04-01T10:44:39.460Z,966.51
2024-04-01T10:45:39.478Z,966.55
2024-04-01T10:46:39.452Z,966.56
2024-04-01T10:47:39.424Z,966.79
2024-04-01T10:48:39.419Z,966.83
2024-04-01T10:49:39.462Z,966.82
2024-04-01T10:50:39.394Z,966.73
2024-04-01T10:51:39.405Z,966.79
2024-04-01T10:52:39.446Z,966.60
2024-04-01T10:53:39.356Z,966.58
2024-04-01T10:54:39.349Z,966.66
2024-04-01T10:55:39.405Z,966.55
2024-04-01T10:56:39.347Z,966.67
2024-04-01T10:57:39.359Z,966.68
2024-04-01T10:58:39.335Z,966.78
2024-04-01T10:59:39.313Z,966.65
2024-04-01T11:00:39.286Z,966.71
2024-04-01T11:01:39.377Z,966.75
2024-04-01T11:02:39.262Z,966.99
2024-04-01T11:03:39.262Z,966.77
2024-04-01T11:04:39.258Z,966.82
2024-04-01T11:05:39.239Z,966.76
2024-04-01T11:06:39.226Z,966.77
2024-04-01T11:07:39.242Z,966.77
2024-04-01T11:08:39.206Z,966.76
2024-04-01T11:09:39.208Z,966.74
2024-04-01T11:10:39.234Z,966.88
2024-04-01T11:11:39.165Z,966.86
2024-04-01T11:12:39.204Z,966.88
2024-04-01T11:13:39.945Z,966.90
2024-04-01T11:14:39.137Z,966.73
2024-04-01T11:15:39.199Z,966.99
2024-04-01T11:16:39.331Z,966.99
2024-04-01T11:17:39.144Z,967.11
2024-04-01T11:18:39.295Z,967.13
2024-04-01T11:19:39.230Z,967.07
2024-04-01T11:20:39.126Z,967.04
2024-04-01T11:21:39.287Z,967.10
2024-04-01T11:22:39.070Z,967.07
2024-04-01T11:23:39.035Z,967.25
2024-04-01T11:24:39.031Z,967.20
2024-04-01T11:25:39.039Z,967.20
2024-04-01T11:26:39.016Z,967.25
2024-04-01T11:27:39.014Z,967.11
2024-04-01T11:28:39.008Z,967.12
2024-04-01T11:29:39.587Z,967.16
2024-04-01T11:30:38.958Z,967.16
2024-04-01T11:31:38.970Z,967.23
2024-04-01T11:32:38.950Z,967.34
2024-04-01T11:33:38.926Z,967.50
2024-04-01T11:34:38.919Z,967.54
2024-04-01T11:35:38.906Z,967.54
2024-04-01T11:36:41.731Z,967.40
2024-04-01T11:37:38.918Z,967.47
2024-04-01T11:38:38.884Z,967.43
2024-04-01T11:39:38.872Z,967.42
2024-04-01T11:40:39.878Z,967.61
2024-04-01T11:41:38.836Z,967.52
2024-04-01T11:42:41.426Z,967.38
2024-04-01T11:43:38.839Z,967.55
2024-04-01T11:44:45.883Z,967.70
2024-04-01T11:45:39.803Z,967.53
2024-04-01T11:46:39.544Z,967.54
2024-04-01T11:47:38.776Z,967.57
2024-04-01T11:48:39.492Z,967.99
2024-04-01T11:49:41.006Z,967.80
2024-04-01T11:50:38.853Z,967.83
2024-04-01T11:51:38.750Z,967.90
2024-04-01T11:52:38.776Z,967.91
2024-04-01T11:53:38.725Z,967.94
2024-04-01T11:54:38.730Z,967.95
2024-04-01T11:55:40.893Z,968.08
2024-04-01T11:56:38.758Z,968.01
2024-04-01T11:57:38.657Z,968.04
2024-04-01T11:58:38.708Z,968.13
2024-04-01T11:59:38.641Z,968.47
2024-04-01T12:00:38.632Z,968.24
2024-04-01T12:01:40.358Z,968.34
2024-04-01T12:02:38.611Z,968.30
2024-04-01T12:03:38.610Z,968.30
2024-04-01T12:04:38.609Z,968.39
2024-04-01T12:05:38.580Z,968.40
2024-04-01T12:06:38.571Z,968.55
2024-04-01T12:07:38.557Z,968.53
2024-04-01T12:08:38.566Z,968.54
2024-04-01T12:09:38.529Z,968.60
2024-04-01T12:10:38.528Z,968.50
2024-04-01T12:11:38.512Z,968.47
2024-04-01T12:12:38.614Z,968.76
2024-04-01T12:13:38.509Z,968.60
2024-04-01T12:14:38.484Z,968.57
2024-04-01T12:15:38.476Z,968.57
2024-04-01T12:16:38.470Z,968.57
2024-04-01T12:17:38.455Z,968.82
2024-04-01T12:18:38.451Z,968.63
2024-04-01T12:19:38.451Z,968.61
2024-04-01T12:20:38.418Z,968.87
2024-04-01T12:21:38.399Z,968.66
2024-04-01T12:22:38.392Z,968.92
2024-04-01T12:23:38.376Z,968.75
2024-04-01T12:24:38.390Z,968.62
2024-04-01T12:25:38.375Z,968.85
2024-04-01T12:26:38.359Z,968.85
2024-04-01T12:27:38.333Z,968.67
2024-04-01T12:28:38.326Z,968.81